createdAt,value
2022-11-16T00:01:05.361Z,12.15
2022-11-16T00:03:32.852Z,11.52
2022-11-16T00:06:00.743Z,10.55
2022-11-16T00:08:30.132Z,10.70
2022-11-16T00:11:04.524Z,12.40
2022-11-16T00:13:32.646Z,12.13
2022-11-16T00:15:59.879Z,10.35
2022-11-16T00:18:27.127Z,10.95
2022-11-16T00:20:54.419Z,11.85
2022-11-16T00:23:21.598Z,12.80
2022-11-16T00:25:48.996Z,12.15
2022-11-16T00:28:16.149Z,10.80
2022-11-16T00:30:43.296Z,9.63
2022-11-16T00:33:14.433Z,8.13
2022-11-16T00:35:41.777Z,10.55
2022-11-16T00:38:08.891Z,10.82
2022-11-16T00:40:35.977Z,9.55
2022-11-16T00:43:03.139Z,13.02
2022-11-16T00:45:30.383Z,8.80
2022-11-16T00:48:00.422Z,9.85
2022-11-16T00:50:28.021Z,10.98
2022-11-16T00:52:55.093Z,9.27
2022-11-16T00:55:22.268Z,10.35
2022-11-16T00:57:49.437Z,8.82
2022-11-16T01:00:17.017Z,8.15
2022-11-16T01:02:44.107Z,10.07
2022-11-16T01:05:11.750Z,10.25
2022-11-16T01:07:39.338Z,9.50
2022-11-16T01:10:07.873Z,7.90
2022-11-16T01:12:34.973Z,11.88
2022-11-16T01:15:02.095Z,8.73
2022-11-16T01:17:29.190Z,10.18
2022-11-16T01:19:56.414Z,12.05
2022-11-16T01:22:23.506Z,8.30
2022-11-16T01:24:50.612Z,10.40
2022-11-16T01:27:17.759Z,12.02
2022-11-16T01:29:45.507Z,12.52
2022-11-16T01:32:12.605Z,9.63
2022-11-16T01:34:39.750Z,8.85
2022-11-16T01:37:06.842Z,12.75
2022-11-16T01:39:33.975Z,10.75
2022-11-16T01:42:01.083Z,11.00
2022-11-16T01:44:34.196Z,11.65
2022-11-16T01:47:02.457Z,8.80
2022-11-16T01:49:31.407Z,10.55
2022-11-16T01:52:03.698Z,10.90
2022-11-16T01:54:31.894Z,8.88
2022-11-16T01:57:01.741Z,9.05
2022-11-16T01:59:29.161Z,12.55
2022-11-16T02:01:56.842Z,10.02
2022-11-16T02:04:23.967Z,12.30
2022-11-16T02:07:09.434Z,10.70
2022-11-16T02:09:55.131Z,10.23
2022-11-16T02:12:28.351Z,11.60
2022-11-16T02:14:55.434Z,13.50
2022-11-16T02:17:31.842Z,14.75
2022-11-16T02:20:04.943Z,13.32
2022-11-16T02:22:58.122Z,12.45
2022-11-16T02:25:37.141Z,13.38
2022-11-16T02:28:21.012Z,9.90
2022-11-16T02:30:49.766Z,14.93
2022-11-16T02:33:19.157Z,14.18
2022-11-16T02:35:48.385Z,12.57
2022-11-16T02:38:18.711Z,14.10
2022-11-16T02:40:48.189Z,16.55
2022-11-16T02:43:21.141Z,15.75
2022-11-16T02:45:50.353Z,14.68
2022-11-16T02:48:23.040Z,16.92
2022-11-16T02:50:52.758Z,18.65
2022-11-16T02:53:23.338Z,17.30
2022-11-16T02:55:50.479Z,18.83
2022-11-16T02:58:22.102Z,18.65
2022-11-16T03:00:54.543Z,16.85
2022-11-16T03:03:21.706Z,19.10
2022-11-16T03:05:54.070Z,21.08
2022-11-16T03:08:27.222Z,22.38
2022-11-16T03:11:14.733Z,18.10
2022-11-16T03:13:42.612Z,20.58
2022-11-16T03:16:17.086Z,19.67
2022-11-16T03:18:45.599Z,19.60
2022-11-16T03:21:19.002Z,20.55
2022-11-16T03:23:46.593Z,16.95
2022-11-16T03:26:15.534Z,18.25
2022-11-16T03:28:53.116Z,17.63
2022-11-16T03:31:36.963Z,17.95
2022-11-16T03:34:10.666Z,16.70
2022-11-16T03:36:39.971Z,18.15
2022-11-16T03:39:11.148Z,17.60
2022-11-16T03:41:41.031Z,18.08
2022-11-16T03:44:09.409Z,17.75
2022-11-16T03:46:36.524Z,17.70
2022-11-16T03:49:03.672Z,14.65
2022-11-16T03:51:30.812Z,14.38
2022-11-16T03:53:57.925Z,16.73
2022-11-16T03:56:25.047Z,16.42
2022-11-16T03:58:52.174Z,15.23
2022-11-16T04:01:19.365Z,16.15
2022-11-16T04:03:46.549Z,16.20
2022-11-16T04:06:32.493Z,15.10
2022-11-16T04:09:18.433Z,16.38
2022-11-16T04:12:04.412Z,14.63
2022-11-16T04:14:50.296Z,18.02
2022-11-16T04:17:37.241Z,16.08
2022-11-16T04:20:23.911Z,16.50
2022-11-16T04:23:15.992Z,16.30
2022-11-16T04:25:44.376Z,15.90
2022-11-16T04:28:14.375Z,16.20
2022-11-16T04:31:01.282Z,14.45
2022-11-16T04:33:48.125Z,16.60
2022-11-16T04:36:34.146Z,16.77
2022-11-16T04:39:01.571Z,17.75
2022-11-16T04:41:48.991Z,16.40
2022-11-16T04:44:16.118Z,15.63
2022-11-16T04:47:01.796Z,14.77
2022-11-16T04:49:28.938Z,16.38
2022-11-16T04:51:56.041Z,18.80
2022-11-16T04:54:23.184Z,14.88
2022-11-16T04:56:50.264Z,15.88
2022-11-16T04:59:17.419Z,15.60
2022-11-16T05:02:03.153Z,16.50
2022-11-16T05:04:30.265Z,14.43
2022-11-16T05:06:57.402Z,15.45
2022-11-16T05:09:24.537Z,15.98
2022-11-16T05:11:51.687Z,15.65
2022-11-16T05:14:18.824Z,16.98
2022-11-16T05:16:45.944Z,17.60
2022-11-16T05:19:31.648Z,17.13
2022-11-16T05:21:58.741Z,16.40
2022-11-16T05:24:34.869Z,15.32
2022-11-16T05:27:02.954Z,16.00
2022-11-16T05:29:30.188Z,18.60
2022-11-16T05:31:57.288Z,19.13
2022-11-16T05:34:24.574Z,16.20
2022-11-16T05:36:51.755Z,16.88
2022-11-16T05:39:19.430Z,17.55
2022-11-16T05:41:46.839Z,16.50
2022-11-16T05:44:14.337Z,12.95
2022-11-16T05:46:41.457Z,16.17
2022-11-16T05:49:09.105Z,15.73
2022-11-16T05:51:37.009Z,15.13
2022-11-16T05:54:04.864Z,16.08
2022-11-16T05:56:32.431Z,14.63
2022-11-16T05:58:59.634Z,16.63
2022-11-16T06:01:26.752Z,12.57
2022-11-16T06:03:54.095Z,15.10
2022-11-16T06:06:21.294Z,13.50
2022-11-16T06:08:48.409Z,13.90
2022-11-16T06:11:15.526Z,14.52
2022-11-16T06:13:42.673Z,13.43
2022-11-16T06:16:10.167Z,15.98
2022-11-16T06:18:38.377Z,15.68
2022-11-16T06:21:05.674Z,14.05
2022-11-16T06:23:32.903Z,16.83
2022-11-16T06:26:00.546Z,12.95
2022-11-16T06:28:27.982Z,14.00
2022-11-16T06:30:55.089Z,14.05
2022-11-16T06:33:22.241Z,14.93
2022-11-16T06:35:49.357Z,16.70
2022-11-16T06:38:18.741Z,14.00
2022-11-16T06:40:46.421Z,17.63
2022-11-16T06:43:13.538Z,17.27
2022-11-16T06:45:40.721Z,17.63
2022-11-16T06:48:07.844Z,14.63
2022-11-16T06:50:35.289Z,14.48
2022-11-16T06:53:02.376Z,15.18
2022-11-16T06:55:29.669Z,13.27
2022-11-16T06:57:56.830Z,15.80
2022-11-16T07:00:23.985Z,15.05
2022-11-16T07:02:51.121Z,16.33
2022-11-16T07:05:18.340Z,12.38
2022-11-16T07:07:45.663Z,15.70
2022-11-16T07:10:13.233Z,12.02
2022-11-16T07:12:40.467Z,14.02
2022-11-16T07:15:07.831Z,12.52
2022-11-16T07:17:34.985Z,12.23
2022-11-16T07:20:02.333Z,12.50
2022-11-16T07:22:29.401Z,12.82
2022-11-16T07:24:56.646Z,11.38
2022-11-16T07:27:23.849Z,13.00
2022-11-16T07:29:51.037Z,10.00
2022-11-16T07:32:18.127Z,9.95
2022-11-16T07:35:23.551Z,14.00
2022-11-16T07:38:27.903Z,11.48
2022-11-16T07:41:52.256Z,10.18
2022-11-16T07:44:56.153Z,15.70
2022-11-16T07:48:08.217Z,13.68
2022-11-16T07:50:35.509Z,12.50
2022-11-16T07:53:02.728Z,12.18
2022-11-16T07:55:32.215Z,14.20
2022-11-16T07:57:59.729Z,14.02
2022-11-16T08:00:26.805Z,10.90
2022-11-16T08:02:53.930Z,11.70
2022-11-16T08:05:21.067Z,11.13
2022-11-16T08:07:48.188Z,10.05
2022-11-16T08:10:15.409Z,10.30
2022-11-16T08:12:42.675Z,9.10
2022-11-16T08:15:09.985Z,11.13
2022-11-16T08:17:37.087Z,10.45
2022-11-16T08:20:04.271Z,8.65
2022-11-16T08:22:31.357Z,12.88
2022-11-16T08:24:58.463Z,10.70
2022-11-16T08:27:25.565Z,10.48
2022-11-16T08:29:52.786Z,11.55
2022-11-16T08:32:19.912Z,10.82
2022-11-16T08:34:47.062Z,11.23
2022-11-16T08:37:14.163Z,12.43
2022-11-16T08:39:41.254Z,15.75
2022-11-16T08:42:08.379Z,11.25
2022-11-16T08:44:35.537Z,12.13
2022-11-16T08:47:02.640Z,11.48
2022-11-16T08:49:29.824Z,10.82
2022-11-16T08:51:57.156Z,10.65
2022-11-16T08:54:24.257Z,12.43
2022-11-16T08:56:51.354Z,12.27
2022-11-16T08:59:18.503Z,13.88
2022-11-16T09:01:45.693Z,9.25
2022-11-16T09:04:12.842Z,11.10
2022-11-16T09:06:39.938Z,9.60
2022-11-16T09:09:07.109Z,7.80
2022-11-16T09:11:34.368Z,10.55
2022-11-16T09:14:01.481Z,10.35
2022-11-16T09:16:28.598Z,10.38
2022-11-16T09:18:56.523Z,7.35
2022-11-16T09:21:25.010Z,9.45
2022-11-16T09:23:52.676Z,7.85
2022-11-16T09:26:22.823Z,6.88
2022-11-16T09:29:04.350Z,7.53
2022-11-16T09:31:34.562Z,8.80
2022-11-16T09:34:02.815Z,7.95
2022-11-16T09:36:30.250Z,7.50
2022-11-16T09:42:03.536Z,5.32
2022-11-16T09:44:37.837Z,5.78
2022-11-16T09:47:06.808Z,6.30
2022-11-16T09:49:36.572Z,6.13
2022-11-16T09:52:05.450Z,7.25
2022-11-16T09:54:35.391Z,6.22
2022-11-16T09:57:10.970Z,6.30
2022-11-16T09:59:41.910Z,8.52
2022-11-16T10:02:18.043Z,5.88
2022-11-16T10:05:03.646Z,9.50
2022-11-16T10:07:37.906Z,7.38
2022-11-16T10:10:05.164Z,6.90
2022-11-16T10:12:40.116Z,5.72
2022-11-16T10:15:25.557Z,7.05
2022-11-16T10:17:58.628Z,5.28
2022-11-16T10:20:30.411Z,5.25
2022-11-16T10:22:58.396Z,6.60
2022-11-16T10:25:45.786Z,9.18
2022-11-16T10:28:31.578Z,4.88
2022-11-16T10:31:04.150Z,6.25
2022-11-16T10:33:36.148Z,6.05
2022-11-16T10:36:11.444Z,6.13
2022-11-16T10:41:25.813Z,6.60
2022-11-16T10:43:53.182Z,5.90
2022-11-16T10:46:29.629Z,4.88
2022-11-16T10:49:02.547Z,7.05
2022-11-16T10:51:29.652Z,5.75
2022-11-16T10:53:57.127Z,6.53
2022-11-16T10:56:31.785Z,6.82
2022-11-16T10:59:00.038Z,5.70
2022-11-16T11:01:49.903Z,6.85
2022-11-16T11:04:16.996Z,6.82
2022-11-16T11:06:45.356Z,5.75
2022-11-16T11:09:30.873Z,6.32
2022-11-16T11:12:28.855Z,6.28
2022-11-16T11:14:58.871Z,7.95
2022-11-16T11:17:27.654Z,6.40
2022-11-16T11:20:04.392Z,7.15
2022-11-16T11:22:32.953Z,7.43
2022-11-16T11:25:03.272Z,5.45
2022-11-16T11:27:33.735Z,6.97
2022-11-16T11:30:01.160Z,5.88
2022-11-16T11:32:32.765Z,6.00
2022-11-16T11:35:01.042Z,6.18
2022-11-16T11:37:31.152Z,7.28
2022-11-16T11:40:18.344Z,4.97
2022-11-16T11:42:52.489Z,7.57
2022-11-16T11:45:20.704Z,8.67
2022-11-16T11:48:04.065Z,5.32
2022-11-16T11:53:12.525Z,6.10
2022-11-16T11:55:39.978Z,5.47
2022-11-16T11:58:11.871Z,7.65
2022-11-16T12:00:43.958Z,7.65
2022-11-16T12:03:28.231Z,6.72
2022-11-16T12:05:55.337Z,7.78
2022-11-16T12:08:39.816Z,5.57
2022-11-16T12:11:15.662Z,5.97
2022-11-16T12:13:42.861Z,6.88
2022-11-16T12:16:18.693Z,5.97
2022-11-16T12:19:12.817Z,6.30
2022-11-16T12:21:55.218Z,7.47
2022-11-16T12:24:35.926Z,5.68
2022-11-16T12:27:12.238Z,5.47
2022-11-16T12:29:45.628Z,5.05
2022-11-16T12:32:15.882Z,5.85
2022-11-16T12:34:52.293Z,6.82
2022-11-16T12:37:39.522Z,5.18
2022-11-16T12:40:25.635Z,8.52
2022-11-16T12:43:02.037Z,5.47
2022-11-16T12:45:45.593Z,7.55
2022-11-16T12:48:19.584Z,5.22
2022-11-16T12:50:52.897Z,6.63
2022-11-16T12:53:43.155Z,6.05
2022-11-16T12:56:10.323Z,9.30
2022-11-16T12:58:55.995Z,6.60
2022-11-16T13:01:29.511Z,4.85
2022-11-16T13:04:03.689Z,5.00
2022-11-16T13:06:34.331Z,5.97
2022-11-16T13:09:08.317Z,4.50
2022-11-16T13:11:44.329Z,6.00
2022-11-16T13:14:17.598Z,5.90
2022-11-16T13:16:45.315Z,4.13
2022-11-16T13:19:13.712Z,4.63
2022-11-16T13:21:41.597Z,5.20
2022-11-16T13:24:17.252Z,3.78
2022-11-16T13:27:09.343Z,6.53
2022-11-16T13:29:52.689Z,5.15
2022-11-16T13:32:39.501Z,5.22
2022-11-16T13:35:07.384Z,3.22
2022-11-16T13:37:37.796Z,3.55
2022-11-16T13:40:05.040Z,2.92
2022-11-16T13:42:33.646Z,3.53
2022-11-16T13:45:08.173Z,4.43
2022-11-16T13:47:35.831Z,4.07
2022-11-16T13:50:03.961Z,6.32
2022-11-16T13:53:40.917Z,3.20
2022-11-16T13:55:31.552Z,3.55
2022-11-16T13:57:59.629Z,3.22
2022-11-16T14:00:27.086Z,2.03
2022-11-16T14:03:23.412Z,8.70
2022-11-16T14:05:53.466Z,3.03
2022-11-16T14:08:20.712Z,2.58
2022-11-16T14:10:50.610Z,3.85
2022-11-16T14:13:36.403Z,3.55
2022-11-16T14:16:15.858Z,2.92
2022-11-16T14:18:43.692Z,3.15
2022-11-16T14:21:19.984Z,3.10
2022-11-16T14:23:55.963Z,2.88
2022-11-16T14:26:32.554Z,3.35
2022-11-16T14:28:59.742Z,5.32
2022-11-16T14:31:29.991Z,3.60
2022-11-16T14:33:58.682Z,3.53
2022-11-16T14:36:55.199Z,2.75
2022-11-16T14:39:37.412Z,4.10
2022-11-16T14:42:06.762Z,6.57
2022-11-16T14:44:36.688Z,9.75
2022-11-16T14:47:04.284Z,9.88
2022-11-16T14:49:33.749Z,11.13
2022-11-16T14:52:02.131Z,11.73
2022-11-16T14:54:33.278Z,9.52
2022-11-16T14:57:01.764Z,13.77
2022-11-16T14:59:29.534Z,10.85
2022-11-16T15:01:56.952Z,8.40
2022-11-16T15:04:25.742Z,8.98
2022-11-16T15:06:55.893Z,9.25
2022-11-16T15:09:34.917Z,8.30
2022-11-16T15:12:24.582Z,6.75
2022-11-16T15:14:53.038Z,6.28
2022-11-16T15:17:22.177Z,12.07
2022-11-16T15:19:59.310Z,7.68
2022-11-16T15:22:30.462Z,7.88
2022-11-16T15:24:58.969Z,5.30
2022-11-16T15:27:26.210Z,6.43
2022-11-16T15:29:53.370Z,6.75
2022-11-16T15:32:20.571Z,6.05
2022-11-16T15:34:50.420Z,6.20
2022-11-16T15:37:27.290Z,6.30
2022-11-16T15:39:54.737Z,4.57
2022-11-16T15:42:23.004Z,4.53
2022-11-16T15:44:50.807Z,4.40
2022-11-16T15:47:17.962Z,6.40
2022-11-16T15:49:49.597Z,4.05
2022-11-16T15:52:43.573Z,5.82
2022-11-16T15:55:23.928Z,7.32
2022-11-16T15:57:59.218Z,4.70
2022-11-16T16:00:27.772Z,5.35
2022-11-16T16:02:57.123Z,6.03
2022-11-16T16:05:34.293Z,6.07
2022-11-16T16:08:02.109Z,6.38
2022-11-16T16:10:29.385Z,7.78
2022-11-16T16:12:57.964Z,7.93
2022-11-16T16:15:31.379Z,8.13
2022-11-16T16:17:59.479Z,6.38
2022-11-16T16:20:29.091Z,7.30
2022-11-16T16:23:06.246Z,8.38
2022-11-16T16:25:34.531Z,6.40
2022-11-16T16:28:02.538Z,6.45
2022-11-16T16:30:30.408Z,7.57
2022-11-16T16:32:57.596Z,7.97
2022-11-16T16:35:25.820Z,5.68
2022-11-16T16:37:57.612Z,9.60
2022-11-16T16:40:25.059Z,6.72
2022-11-16T16:42:53.298Z,8.15
2022-11-16T16:45:22.362Z,4.53
2022-11-16T16:47:49.622Z,8.50
2022-11-16T16:50:17.153Z,6.53
2022-11-16T16:52:44.369Z,8.25
2022-11-16T16:55:11.505Z,12.40
2022-11-16T16:57:38.714Z,8.45
2022-11-16T17:00:06.173Z,9.95
2022-11-16T17:02:33.463Z,10.63
2022-11-16T17:05:00.610Z,13.80
2022-11-16T17:07:27.777Z,12.20
2022-11-16T17:09:54.934Z,11.38
2022-11-16T17:12:22.090Z,11.35
2022-11-16T17:14:52.426Z,15.38
2022-11-16T17:17:20.073Z,13.55
2022-11-16T17:19:47.445Z,11.60
2022-11-16T17:22:14.978Z,10.18
2022-11-16T17:24:42.101Z,10.43
2022-11-16T17:27:09.280Z,12.98
2022-11-16T17:29:36.461Z,18.70
2022-11-16T17:32:04.162Z,12.52
2022-11-16T17:34:31.624Z,12.13
2022-11-16T17:36:58.811Z,13.65
2022-11-16T17:39:25.976Z,11.40
2022-11-16T17:41:53.149Z,12.75
2022-11-16T17:44:21.925Z,13.25
2022-11-16T17:46:49.496Z,11.60
2022-11-16T17:49:16.683Z,13.18
2022-11-16T17:51:44.252Z,11.63
2022-11-16T17:54:11.421Z,16.27
2022-11-16T17:56:38.657Z,16.42
2022-11-16T17:59:05.898Z,11.00
2022-11-16T18:01:33.289Z,16.95
2022-11-16T18:04:02.482Z,17.73
2022-11-16T18:06:29.808Z,18.85
2022-11-16T18:08:57.525Z,17.63
2022-11-16T18:11:25.711Z,16.20
2022-11-16T18:13:53.957Z,21.15
2022-11-16T18:16:22.522Z,26.30
2022-11-16T18:18:50.762Z,26.02
2022-11-16T18:21:20.748Z,20.42
2022-11-16T18:23:48.153Z,22.33
2022-11-16T18:26:17.146Z,20.10
2022-11-16T18:28:47.657Z,16.98
2022-11-16T18:31:15.917Z,17.52
2022-11-16T18:33:43.504Z,18.80
2022-11-16T18:36:11.016Z,16.70
2022-11-16T18:38:38.193Z,18.10
2022-11-16T18:41:06.609Z,18.63
2022-11-16T18:43:34.548Z,16.67
2022-11-16T18:46:02.378Z,15.45
2022-11-16T18:48:29.511Z,14.55
2022-11-16T18:51:00.098Z,16.90
2022-11-16T18:53:27.581Z,15.90
2022-11-16T18:55:57.883Z,15.75
2022-11-16T19:01:16.027Z,13.90
2022-11-16T19:03:43.362Z,14.52
2022-11-16T19:06:11.720Z,13.77
2022-11-16T19:08:40.338Z,15.80
2022-11-16T19:11:12.358Z,13.57
2022-11-16T19:13:40.157Z,15.60
2022-11-16T19:16:07.697Z,15.07
2022-11-16T19:18:35.526Z,17.27
2022-11-16T19:21:03.542Z,17.40
2022-11-16T19:23:30.973Z,18.45
2022-11-16T19:26:01.904Z,14.07
2022-11-16T19:28:29.182Z,19.50
2022-11-16T19:30:56.292Z,15.40
2022-11-16T19:33:23.450Z,14.48
2022-11-16T19:35:50.567Z,15.60
2022-11-16T19:38:17.703Z,15.43
2022-11-16T19:40:44.905Z,13.65
2022-11-16T19:43:12.352Z,28.05
2022-11-16T19:45:39.588Z,26.52
2022-11-16T19:48:06.725Z,19.48
2022-11-16T19:50:35.557Z,12.95
2022-11-16T19:53:02.650Z,15.73
2022-11-16T19:55:29.831Z,15.18
2022-11-16T19:57:57.014Z,16.40
2022-11-16T20:00:24.210Z,13.27
2022-11-16T20:02:56.153Z,12.88
2022-11-16T20:05:23.644Z,10.57
2022-11-16T20:07:50.843Z,8.57
2022-11-16T20:10:18.064Z,11.55
2022-11-16T20:12:45.163Z,11.23
2022-11-16T20:15:12.299Z,13.18
2022-11-16T20:17:39.423Z,11.23
2022-11-16T20:20:06.740Z,13.63
2022-11-16T20:22:33.881Z,10.70
2022-11-16T20:25:01.081Z,13.30
2022-11-16T20:27:28.188Z,10.98
2022-11-16T20:29:55.312Z,9.43
2022-11-16T20:32:23.743Z,9.85
2022-11-16T20:34:51.170Z,11.40
2022-11-16T20:37:18.361Z,10.15
2022-11-16T20:39:52.432Z,9.65
2022-11-16T20:42:20.024Z,8.30
2022-11-16T20:44:47.172Z,7.85
2022-11-16T20:47:14.332Z,7.68
2022-11-16T20:49:41.497Z,8.05
2022-11-16T20:52:08.646Z,8.90
2022-11-16T20:54:35.940Z,8.20
2022-11-16T20:57:03.107Z,7.97
2022-11-16T20:59:30.247Z,9.82
2022-11-16T21:01:57.408Z,8.25
2022-11-16T21:04:24.522Z,9.27
2022-11-16T21:06:51.870Z,9.15
2022-11-16T21:09:22.790Z,8.38
2022-11-16T21:12:08.845Z,8.32
2022-11-16T21:14:36.063Z,8.20
2022-11-16T21:17:03.197Z,10.48
2022-11-16T21:19:30.392Z,9.98
2022-11-16T21:21:57.521Z,9.68
2022-11-16T21:24:24.822Z,10.98
2022-11-16T21:26:52.466Z,9.70
2022-11-16T21:29:25.828Z,9.75
2022-11-16T21:31:52.940Z,9.10
2022-11-16T21:34:20.286Z,11.25
2022-11-16T21:36:47.646Z,9.55
2022-11-16T21:39:14.770Z,9.88
2022-11-16T21:41:41.883Z,10.18
2022-11-16T21:44:09.016Z,8.60
2022-11-16T21:46:36.149Z,9.82
2022-11-16T21:49:03.330Z,9.35
2022-11-16T21:51:30.898Z,10.15
2022-11-16T21:53:58.039Z,11.32
2022-11-16T21:56:26.400Z,10.15
2022-11-16T21:58:54.195Z,8.95
2022-11-16T22:01:21.939Z,9.20
2022-11-16T22:04:09.299Z,9.68
2022-11-16T22:06:55.217Z,10.95
2022-11-16T22:09:22.703Z,10.65
2022-11-16T22:11:49.858Z,8.68
2022-11-16T22:14:17.015Z,8.90
2022-11-16T22:16:44.184Z,8.20
2022-11-16T22:19:11.325Z,10.52
2022-11-16T22:21:38.499Z,8.88
2022-11-16T22:24:05.713Z,8.13
2022-11-16T22:26:32.892Z,6.95
2022-11-16T22:29:00.099Z,10.00
2022-11-16T22:31:27.231Z,12.02
2022-11-16T22:33:54.366Z,10.48
2022-11-16T22:36:21.517Z,9.77
2022-11-16T22:38:49.488Z,10.95
2022-11-16T22:41:16.609Z,9.55
2022-11-16T22:43:43.781Z,10.77
2022-11-16T22:46:11.501Z,8.63
2022-11-16T22:48:39.781Z,11.27
2022-11-16T22:51:08.344Z,9.25
2022-11-16T22:53:35.803Z,10.10
2022-11-16T22:56:07.683Z,13.10
2022-11-16T22:58:35.467Z,11.13
2022-11-16T23:01:02.779Z,10.07
2022-11-16T23:03:30.345Z,10.82
2022-11-16T23:05:57.869Z,8.13
2022-11-16T23:08:25.965Z,10.02
2022-11-16T23:11:18.939Z,10.07
2022-11-16T23:14:05.236Z,9.02
2022-11-16T23:16:32.411Z,11.18
2022-11-16T23:19:00.203Z,9.15
2022-11-16T23:21:45.983Z,9.95
2022-11-16T23:24:32.897Z,10.75
2022-11-16T23:27:20.347Z,11.75
2022-11-16T23:29:47.817Z,8.73
2022-11-16T23:32:15.004Z,9.13
2022-11-16T23:34:42.123Z,7.35
2022-11-16T23:37:09.337Z,7.93
2022-11-16T23:39:36.456Z,9.68
2022-11-16T23:42:22.601Z,8.95
2022-11-16T23:44:49.704Z,6.90
2022-11-16T23:47:16.881Z,9.82
2022-11-16T23:49:44.007Z,9.38
2022-11-16T23:52:11.330Z,8.00
2022-11-16T23:54:38.500Z,7.25
2022-11-16T23:57:06.264Z,7.30
2022-11-16T23:59:33.706Z,7.95
